Portada
METAR-TAF:

METAR-TAF

Aeroports :

Nevis, Antigua i Barbuda

latitud: 17-12N, longitud: 062-35W, altitud: 17 m

Observació

L'informe es va fer fa 14 hores i 2 minuts, a les 21:00 UTC
Vent 5 kt del Oest
Temperatura 29°C
Humitat 74%
Pressió 1010 hPa
Visibilitat 10 km o més
Escasses núvols a una alçada de 2200 ft

METAR: TKPN 202100Z 26005KT 9999 FEW022 29/24 Q1010

Hora: 07:02 (11:02 UTC)

Pronòstic

L'informe es va fer fa 17 hores i 37 minuts, a les 17:25 UTC
Pronòstic vàlid del 20 a les 18 UTC al 21 a les 18 UTC
Vent 5 kt del Oest/Sud-Oest
Visibilitat 10 km o més
Escasses núvols a una alçada de 2000 ft

TAF: TKPN 201725Z 2018/2118 25005KT 9999 FEW020

Observacions i pronòstics meteorològics de més de 4000 aeroports (METAR i TAF).

Les estacions disponibles són els punts grocs i vermells al mapa.

Posi el ratolí al punt desitjat per veure el nom de l'estació.

Feu clic per veure les observacions i els pronòstics meteorològics.

Per canviar el mapa: feu clic els botons verds amb una creu de color negre per apropar; al botó verd amb un guió per allunyar la imatge; o en les fletxes verdes per a mapes adjacents.


METAR-TAF: